Carnival Triumph — C6FN5 — position and weather

sailwx.info

Track history (hours):
 
Tides and Currents Weather Stations Pressure Air Temp Water Temp Dewpoint Dewpoint Depression Visibility Wind Speed Wind Dir Waves Ship Positions

Carnival Triumph

Operator: Carnival Cruise Lines

Last reported at 2019-Apr-23 03:44 UTC. Time now 2019-Apr-25 12:08 UTC.
Position N 37°33' W 032°12'.

Type: Passenger vessel. MMSI: 308045000.

Date/timePositionNaut miles runAvg speedWind from/ knotsBaromVisibWave heightAir tempDewpointWater temp
2019-Apr-23 03:44N 37°33' W 032°12'417.5
2019-Apr-23 03:30N 37°33' W 032°07'917.3
2019-Apr-23 03:00N 37°33' W 031°56'917.4
2019-Apr-23 02:30N 37°34' W 031°45'917.4
2019-Apr-23 02:01N 37°34' W 031°34'917.8
2019-Apr-23 01:30N 37°34' W 031°23'917.8
2019-Apr-23 01:00N 37°35' W 031°12'917.8
2019-Apr-23 00:29N 37°35' W 031°00'817.6
2019-Apr-23 00:00N 37°35' W 030°49'1217.5
2019-Apr-22 23:19N 37°36' W 030°34'1117.1
2019-Apr-22 22:40N 37°36' W 030°20'317.3
2019-Apr-22 22:29N 37°36' W 030°16'817.4
2019-Apr-22 22:00N 37°36' W 030°06'1117.5
2019-Apr-22 21:24N 37°37' W 029°52'717.6
2019-Apr-22 21:00N 37°37' W 029°44'917.6
2019-Apr-22 20:30N 37°37' W 029°33'917.6
2019-Apr-22 20:01N 37°38' W 029°22'917.6
2019-Apr-22 19:31N 37°38' W 029°10'918.0
2019-Apr-22 19:00N 37°38' W 028°59'917.4
2019-Apr-22 18:30N 37°38' W 028°48'917.7
2019-Apr-22 18:01N 37°39' W 028°37'917.5
2019-Apr-22 17:30N 37°39' W 028°26'918.0
2019-Apr-22 17:00N 37°39' W 028°15'918.6
2019-Apr-22 16:30N 37°40' W 028°03'918.6
2019-Apr-22 16:00N 37°40' W 027°51'918.4
2019-Apr-22 15:30N 37°40' W 027°39'918.3
2019-Apr-22 15:00N 37°41' W 027°28'918.0
2019-Apr-22 14:30N 37°41' W 027°17'918.3
2019-Apr-22 14:00N 37°41' W 027°05'918.1
2019-Apr-22 13:31N 37°41' W 026°54'918.1
2019-Apr-22 13:00N 37°42' W 026°42'918.8
2019-Apr-22 12:31N 37°42' W 026°30'1019.0
2019-Apr-22 12:00N 37°42' W 026°18'816.2
2019-Apr-22 11:31N 37°42' W 026°08'1020.8
2019-Apr-22 11:00N 37°42' W 025°55'612.6
2019-Apr-22 10:30N 37°42' W 025°47'510.6
2019-Apr-22 10:00N 37°43' W 025°40'2 4.4
2019-Apr-22 09:30N 37°44' W 025°39'3 6.7
2019-Apr-22 09:00N 37°42' W 025°35'510.8
2019-Apr-22 08:30N 37°39' W 025°30'612.5
2019-Apr-22 08:00N 37°35' W 025°24'612.5
2019-Apr-22 07:30N 37°31' W 025°17'612.4
2019-Apr-22 07:00N 37°29' W 025°10'612.3
2019-Apr-22 06:30N 37°28' W 025°02'612.6
2019-Apr-22 06:00N 37°27' W 024°55'612.8
2019-Apr-22 05:30N 37°26' W 024°47'713.1
2019-Apr-22 05:00N 37°25' W 024°38'713.1
2019-Apr-22 04:30N 37°24' W 024°30'713.6
2019-Apr-22 04:00N 37°24' W 024°22'713.2
2019-Apr-22 03:30N 37°23' W 024°13'713.1
2019-Apr-22 03:01N 37°23' W 024°05'714.2
2019-Apr-22 02:31N 37°22' W 023°56'714.0
2019-Apr-22 02:01N 37°21' W 023°48'714.0
2019-Apr-22 01:30N 37°21' W 023°39'714.2
2019-Apr-22 01:00N 37°20' W 023°30'714.0
2019-Apr-22 00:30N 37°19' W 023°21'714.2
2019-Apr-22 00:00N 37°18' W 023°12'714.5
2019-Apr-21 23:30N 37°18' W 023°03'816.1
2019-Apr-21 23:00N 37°17' W 022°53'816.4
2019-Apr-21 22:30N 37°16' W 022°43'916.7
2019-Apr-21 22:00N 37°15' W 022°32'817.0
2019-Apr-21 21:30N 37°14' W 022°22'917.1
2019-Apr-21 20:59N 37°13' W 022°11'816.9
2019-Apr-21 20:30N 37°13' W 022°01'1217.1
2019-Apr-21 19:49N 37°12' W 021°46'717.2
2019-Apr-21 19:25N 37°11' W 021°37'716.9
2019-Apr-21 19:01N 37°10' W 021°29'917.2
2019-Apr-21 18:30N 37°09' W 021°18'917.3
2019-Apr-21 18:00N 37°09' W 021°07'917.2
2019-Apr-21 17:30N 37°08' W 020°56'816.8
2019-Apr-21 17:00N 37°07' W 020°46'917.8
2019-Apr-21 16:28N 37°06' W 020°34'1121.1
2019-Apr-21 15:58N 37°05' W 020°21'1521.8
2019-Apr-21 15:17N 37°03' W 020°02'821.9
2019-Apr-21 14:55N 37°02' W 019°52'2121.8
2019-Apr-21 13:56N 37°00' W 019°26'921.4
2019-Apr-21 13:30N 36°59' W 019°14'1320.6
2019-Apr-21 12:51N 36°58' W 018°57'516.0
2019-Apr-21 12:30N 36°57' W 018°50'915.7
2019-Apr-21 11:55N 36°56' W 018°39'616.0
2019-Apr-21 11:31N 36°56' W 018°31'1215.9
2019-Apr-21 10:46N 36°55' W 018°16'416.2
2019-Apr-21 10:30N 36°55' W 018°11'916.8
2019-Apr-21 09:59N 36°55' W 017°60'9 8.9
2019-Apr-21 09:00N 36°52' W 017°49'1019.7
2019-Apr-21 08:30N 36°51' W 017°37'1219.1
2019-Apr-21 07:51N 36°50' W 017°21'17119.6
2019-Apr-20 23:07N 36°33' W 013°49'1019.6
2019-Apr-20 22:36N 36°32' W 013°37'419.6
2019-Apr-20 22:23N 36°31' W 013°31'819.7
2019-Apr-20 21:58N 36°31' W 013°21'1119.8
2019-Apr-20 21:25N 36°30' W 013°08'820.0
2019-Apr-20 21:00N 36°29' W 012°57'1020.3
2019-Apr-20 20:30N 36°28' W 012°45'1020.6
2019-Apr-20 20:00N 36°27' W 012°32'1320.5
2019-Apr-20 19:22N 36°25' W 012°16'  
Track history (hours):
 
Tides and Currents Weather Stations Pressure Air Temp Water Temp Dewpoint Dewpoint Depression Visibility Wind Speed Wind Dir Waves Ship Positions

Carnival Triumph

Operator: Carnival Cruise Lines

Last reported at 2019-Apr-23 03:44 UTC. Time now 2019-Apr-25 12:08 UTC.
Position N 37°33' W 032°12'.

Type: Passenger vessel. MMSI: 308045000.

Date/timePositionNaut miles runAvg speedWind from/ knotsBaromVisibWave heightAir tempDewpointWater temp
2019-Apr-23 03:44N 37°33' W 032°12'417.5
2019-Apr-23 03:30N 37°33' W 032°07'917.3
2019-Apr-23 03:00N 37°33' W 031°56'917.4
2019-Apr-23 02:30N 37°34' W 031°45'917.4
2019-Apr-23 02:01N 37°34' W 031°34'917.8
2019-Apr-23 01:30N 37°34' W 031°23'917.8
2019-Apr-23 01:00N 37°35' W 031°12'917.8
2019-Apr-23 00:29N 37°35' W 031°00'817.6
2019-Apr-23 00:00N 37°35' W 030°49'1217.5
2019-Apr-22 23:19N 37°36' W 030°34'1117.1
2019-Apr-22 22:40N 37°36' W 030°20'317.3
2019-Apr-22 22:29N 37°36' W 030°16'817.4
2019-Apr-22 22:00N 37°36' W 030°06'1117.5
2019-Apr-22 21:24N 37°37' W 029°52'717.6
2019-Apr-22 21:00N 37°37' W 029°44'917.6
2019-Apr-22 20:30N 37°37' W 029°33'917.6
2019-Apr-22 20:01N 37°38' W 029°22'917.6
2019-Apr-22 19:31N 37°38' W 029°10'918.0
2019-Apr-22 19:00N 37°38' W 028°59'917.4
2019-Apr-22 18:30N 37°38' W 028°48'917.7
2019-Apr-22 18:01N 37°39' W 028°37'917.5
2019-Apr-22 17:30N 37°39' W 028°26'918.0
2019-Apr-22 17:00N 37°39' W 028°15'918.6
2019-Apr-22 16:30N 37°40' W 028°03'918.6
2019-Apr-22 16:00N 37°40' W 027°51'918.4
2019-Apr-22 15:30N 37°40' W 027°39'918.3
2019-Apr-22 15:00N 37°41' W 027°28'918.0
2019-Apr-22 14:30N 37°41' W 027°17'918.3
2019-Apr-22 14:00N 37°41' W 027°05'918.1
2019-Apr-22 13:31N 37°41' W 026°54'918.1
2019-Apr-22 13:00N 37°42' W 026°42'918.8
2019-Apr-22 12:31N 37°42' W 026°30'1019.0
2019-Apr-22 12:00N 37°42' W 026°18'816.2
2019-Apr-22 11:31N 37°42' W 026°08'1020.8
2019-Apr-22 11:00N 37°42' W 025°55'612.6
2019-Apr-22 10:30N 37°42' W 025°47'510.6
2019-Apr-22 10:00N 37°43' W 025°40'2 4.4
2019-Apr-22 09:30N 37°44' W 025°39'3 6.7
2019-Apr-22 09:00N 37°42' W 025°35'510.8
2019-Apr-22 08:30N 37°39' W 025°30'612.5
2019-Apr-22 08:00N 37°35' W 025°24'612.5
2019-Apr-22 07:30N 37°31' W 025°17'612.4
2019-Apr-22 07:00N 37°29' W 025°10'612.3
2019-Apr-22 06:30N 37°28' W 025°02'612.6
2019-Apr-22 06:00N 37°27' W 024°55'612.8
2019-Apr-22 05:30N 37°26' W 024°47'713.1
2019-Apr-22 05:00N 37°25' W 024°38'713.1
2019-Apr-22 04:30N 37°24' W 024°30'713.6
2019-Apr-22 04:00N 37°24' W 024°22'713.2
2019-Apr-22 03:30N 37°23' W 024°13'713.1
2019-Apr-22 03:01N 37°23' W 024°05'714.2
2019-Apr-22 02:31N 37°22' W 023°56'714.0
2019-Apr-22 02:01N 37°21' W 023°48'714.0
2019-Apr-22 01:30N 37°21' W 023°39'714.2
2019-Apr-22 01:00N 37°20' W 023°30'714.0
2019-Apr-22 00:30N 37°19' W 023°21'714.2
2019-Apr-22 00:00N 37°18' W 023°12'714.5
2019-Apr-21 23:30N 37°18' W 023°03'816.1
2019-Apr-21 23:00N 37°17' W 022°53'816.4
2019-Apr-21 22:30N 37°16' W 022°43'916.7
2019-Apr-21 22:00N 37°15' W 022°32'817.0
2019-Apr-21 21:30N 37°14' W 022°22'917.1
2019-Apr-21 20:59N 37°13' W 022°11'816.9
2019-Apr-21 20:30N 37°13' W 022°01'1217.1
2019-Apr-21 19:49N 37°12' W 021°46'717.2
2019-Apr-21 19:25N 37°11' W 021°37'716.9
2019-Apr-21 19:01N 37°10' W 021°29'917.2
2019-Apr-21 18:30N 37°09' W 021°18'917.3
2019-Apr-21 18:00N 37°09' W 021°07'917.2
2019-Apr-21 17:30N 37°08' W 020°56'816.8
2019-Apr-21 17:00N 37°07' W 020°46'917.8
2019-Apr-21 16:28N 37°06' W 020°34'1121.1
2019-Apr-21 15:58N 37°05' W 020°21'1521.8
2019-Apr-21 15:17N 37°03' W 020°02'821.9
2019-Apr-21 14:55N 37°02' W 019°52'2121.8
2019-Apr-21 13:56N 37°00' W 019°26'921.4
2019-Apr-21 13:30N 36°59' W 019°14'1320.6
2019-Apr-21 12:51N 36°58' W 018°57'516.0
2019-Apr-21 12:30N 36°57' W 018°50'915.7
2019-Apr-21 11:55N 36°56' W 018°39'616.0
2019-Apr-21 11:31N 36°56' W 018°31'1215.9
2019-Apr-21 10:46N 36°55' W 018°16'416.2
2019-Apr-21 10:30N 36°55' W 018°11'916.8
2019-Apr-21 09:59N 36°55' W 017°60'9 8.9
2019-Apr-21 09:00N 36°52' W 017°49'1019.7
2019-Apr-21 08:30N 36°51' W 017°37'1219.1
2019-Apr-21 07:51N 36°50' W 017°21'17119.6
2019-Apr-20 23:07N 36°33' W 013°49'1019.6
2019-Apr-20 22:36N 36°32' W 013°37'419.6
2019-Apr-20 22:23N 36°31' W 013°31'819.7
2019-Apr-20 21:58N 36°31' W 013°21'1119.8
2019-Apr-20 21:25N 36°30' W 013°08'820.0
2019-Apr-20 21:00N 36°29' W 012°57'1020.3
2019-Apr-20 20:30N 36°28' W 012°45'1020.6
2019-Apr-20 20:00N 36°27' W 012°32'1320.5
2019-Apr-20 19:22N 36°25' W 012°16'  

Dump ship's entire track history